Time;durP1;ratioP1;P1;durP2;ratioP2;P2;SDS_P1;SDS_P2;PMS_P1;PMS_P2;Temp;Humidity;BMP_temperature;BMP_pressure;BME280_temperature;BME280_humidity;BME280_pressure;Samples;Min_cycle;Max_cycle;Signal;HPM_P1;HPM_P2
2022/09/21 00:01:23;;;;;;;0.45;0.45;;;;;;;4.90;67.85;93567.34;5091977;28;20097;-33
2022/09/21 00:03:53;;;;;;;0.65;0.65;;;;;;;4.73;68.51;93574.19;5092272;28;20403;-33
2022/09/21 00:06:19;;;;;;;0.50;0.50;;;;;;;4.64;69.09;93572.50;5092081;28;20020;-33
2022/09/21 00:08:46;;;;;;;0.68;0.68;;;;;;;4.69;68.99;93571.00;5092166;28;20411;-33
2022/09/21 00:11:13;;;;;;;0.85;0.85;;;;;;;4.50;68.48;93547.00;5091938;28;20400;-33
2022/09/21 00:13:38;;;;;;;0.28;0.28;;;;;;;4.63;68.44;93559.34;5091671;28;20624;-33
2022/09/21 00:16:05;;;;;;;0.88;0.73;;;;;;;4.82;68.09;93573.88;5091715;28;20051;-33
2022/09/21 00:18:31;;;;;;;0.35;0.35;;;;;;;4.69;68.13;93574.47;5091870;28;20035;-33
2022/09/21 00:20:57;;;;;;;0.60;0.60;;;;;;;4.71;68.81;93574.72;5091579;28;20497;-33
2022/09/21 00:23:22;;;;;;;0.30;0.30;;;;;;;4.73;68.14;93576.94;5091494;28;20024;-33
2022/09/21 00:25:48;;;;;;;0.20;0.20;;;;;;;4.70;67.88;93564.28;5091537;28;20057;-33
2022/09/21 00:28:13;;;;;;;0.57;0.57;;;;;;;4.66;68.08;93570.00;5091347;28;20028;-33
2022/09/21 00:30:39;;;;;;;0.82;0.82;;;;;;;4.69;68.06;93571.75;5091339;28;20024;-33
2022/09/21 00:33:05;;;;;;;0.30;0.30;;;;;;;4.64;68.44;93572.50;5091107;28;20024;-33
2022/09/21 00:35:30;;;;;;;0.20;0.20;;;;;;;4.70;67.61;93570.47;5073293;28;20024;-33
2022/09/21 00:38:00;;;;;;;0.43;0.43;;;;;;;4.29;68.57;93531.47;5091346;28;20023;-33
2022/09/21 00:40:25;;;;;;;0.50;0.50;;;;;;;4.65;67.91;93565.81;5091309;28;20054;-33
2022/09/21 00:42:51;;;;;;;0.32;0.32;;;;;;;4.66;67.89;93566.56;5091341;28;20024;-33
2022/09/21 00:45:22;;;;;;;0.98;0.98;;;;;;;4.56;67.77;93561.41;5091404;28;20031;-33
2022/09/21 00:47:51;;;;;;;0.30;0.30;;;;;;;4.27;68.63;93558.56;5091170;28;20032;-33
2022/09/21 00:50:21;;;;;;;0.50;0.50;;;;;;;4.19;68.58;93560.34;5073075;28;20549;-33
2022/09/21 00:52:50;;;;;;;0.32;0.32;;;;;;;4.44;67.91;93545.56;5091208;28;20456;-33
2022/09/21 00:55:27;;;;;;;0.40;0.40;;;;;;;3.95;69.25;93552.78;5073297;28;20106;-33
2022/09/21 00:57:56;;;;;;;0.30;0.30;;;;;;;4.04;69.58;93541.56;5091278;28;20036;-33
2022/09/21 01:00:21;;;;;;;0.30;0.30;;;;;;;4.08;68.77;93547.50;5073143;28;20045;-33
2022/09/21 01:02:47;;;;;;;0.65;0.65;;;;;;;4.18;68.56;93558.88;5090606;28;20031;-33
2022/09/21 01:05:12;;;;;;;2.70;2.50;;;;;;;4.15;69.33;93557.91;5072702;28;20038;-33
2022/09/21 01:07:42;;;;;;;0.20;0.20;;;;;;;4.23;68.11;93555.38;5091042;28;20032;-33
2022/09/21 01:10:11;;;;;;;3.83;2.47;;;;;;;4.32;67.89;93552.34;5072715;28;20400;-33
2022/09/21 01:13:04;;;;;;;0.65;0.65;;;;;;;4.10;67.96;93544.25;5072699;28;20110;-33
2022/09/21 01:15:49;;;;;;;0.70;0.70;;;;;;;3.90;68.29;93550.81;5072747;28;20039;-33
2022/09/21 01:18:24;;;;;;;1.08;0.95;;;;;;;3.97;68.22;93547.56;5072905;28;20036;-33
2022/09/21 01:21:06;;;;;;;0.30;0.30;;;;;;;4.08;67.56;93544.78;5072657;28;20106;-33
2022/09/21 01:24:15;;;;;;;0.20;0.20;;;;;;;3.96;68.15;93548.81;5090609;28;20024;-33
2022/09/21 01:26:56;;;;;;;0.50;0.50;;;;;;;4.07;68.35;93548.00;5037560;28;20124;-33
2022/09/21 01:29:32;;;;;;;0.20;0.20;;;;;;;3.90;68.65;93542.59;5084879;28;20040;-33
2022/09/21 01:32:19;;;;;;;0.30;0.30;;;;;;;4.14;67.61;93542.00;5072467;28;20031;-33
2022/09/21 01:34:53;;;;;;;0.30;0.30;;;;;;;4.19;67.79;93538.50;5090748;28;20032;-33
2022/09/21 01:37:23;;;;;;;0.30;0.30;;;;;;;4.09;68.21;93535.34;5072853;28;20172;-33
2022/09/21 01:39:52;;;;;;;1.02;0.65;;;;;;;4.16;67.53;93532.06;5090419;28;20052;-33
2022/09/21 01:42:18;;;;;;;0.65;0.65;;;;;;;4.16;68.10;93534.78;5090248;28;20480;-33
2022/09/21 01:44:44;;;;;;;0.20;0.20;;;;;;;3.85;69.48;93532.47;5072244;28;20035;-33
2022/09/21 01:47:14;;;;;;;0.50;0.50;;;;;;;3.74;69.33;93527.81;5090608;28;20024;-33
2022/09/21 01:49:40;;;;;;;;;;;;;;;3.73;69.50;93526.31;5073591;28;20035;-33
2022/09/21 01:52:14;;;;;;;1.63;1.52;;;;;;;3.66;69.72;93523.38;5072142;28;20391;-33
2022/09/21 01:54:48;;;;;;;0.30;0.30;;;;;;;3.61;69.19;93511.22;5072616;28;20105;-33
2022/09/21 01:57:35;;;;;;;0.38;0.38;;;;;;;3.68;68.73;93527.06;5090338;28;20488;-33
2022/09/21 02:00:02;;;;;;;0.30;0.30;;;;;;;3.53;68.96;93523.16;5090505;28;20032;-33
2022/09/21 02:02:47;;;;;;;0.60;0.60;;;;;;;3.68;68.17;93520.88;5090137;28;20480;-33
2022/09/21 02:05:15;;;;;;;0.57;0.57;;;;;;;3.45;69.03;93531.09;5072485;28;20032;-33
2022/09/21 02:07:41;;;;;;;0.30;0.30;;;;;;;3.62;68.49;93533.78;5090054;28;20028;-33
2022/09/21 02:10:07;;;;;;;0.30;0.30;;;;;;;3.54;68.79;93536.31;5072220;28;20031;-33
2022/09/21 02:12:33;;;;;;;0.40;0.40;;;;;;;3.49;68.94;93528.13;5090236;28;20035;-33
2022/09/21 02:14:59;;;;;;;0.47;0.47;;;;;;;3.52;68.92;93543.50;5091646;28;20412;-33
2022/09/21 02:17:45;;;;;;;0.40;0.40;;;;;;;3.51;68.95;93544.75;5076226;28;20100;-33
2022/09/21 02:20:27;;;;;;;0.30;0.30;;;;;;;3.60;68.24;93541.72;5094301;28;20026;-33
2022/09/21 02:23:09;;;;;;;0.30;0.30;;;;;;;3.46;69.13;93534.59;5075880;28;20020;-33
2022/09/21 02:25:50;;;;;;;0.68;0.68;;;;;;;3.41;69.28;93544.28;5075815;28;20024;-33
2022/09/21 02:28:15;;;;;;;0.30;0.30;;;;;;;3.56;68.46;93542.00;5094037;28;20093;-33
2022/09/21 02:30:44;;;;;;;0.35;0.35;;;;;;;3.61;68.58;93541.25;5075521;28;20064;-33
2022/09/21 02:33:18;;;;;;;0.50;0.50;;;;;;;3.56;68.42;93554.91;5075896;28;20031;-33
2022/09/21 02:36:04;;;;;;;0.40;0.40;;;;;;;3.43;69.54;93555.44;5075547;28;20097;-33
2022/09/21 02:38:48;;;;;;;0.30;0.30;;;;;;;3.45;70.80;93552.94;5075673;28;20135;-33
2022/09/21 02:41:48;;;;;;;0.38;0.38;;;;;;;3.56;69.56;93544.72;5075558;28;20024;-33
2022/09/21 02:44:19;;;;;;;0.52;0.52;;;;;;;3.72;69.15;93551.38;5093076;28;20451;-33
2022/09/21 02:46:55;;;;;;;0.25;0.25;;;;;;;3.37;69.42;93529.41;5093403;28;20112;-33
2022/09/21 02:49:27;;;;;;;0.20;0.20;;;;;;;3.62;69.02;93550.91;5076130;28;20036;-33
2022/09/21 02:51:57;;;;;;;0.20;0.20;;;;;;;3.50;69.42;93549.47;5075240;28;20582;-33
2022/09/21 02:54:25;;;;;;;0.30;0.30;;;;;;;3.52;68.70;93552.44;5093493;28;20032;-33
2022/09/21 02:56:51;;;;;;;0.20;0.20;;;;;;;3.31;69.92;93553.22;5075517;28;20024;-33
2022/09/21 02:59:17;;;;;;;0.22;0.22;;;;;;;3.34;69.81;93555.69;5075393;28;20548;-33
2022/09/21 03:01:42;;;;;;;0.50;0.50;;;;;;;3.26;69.50;93548.53;5093382;28;20031;-33
2022/09/21 03:04:09;;;;;;;0.73;0.73;;;;;;;3.19;69.86;93551.75;5075299;28;20420;-33
2022/09/21 03:06:34;;;;;;;0.40;0.40;;;;;;;3.30;69.21;93554.47;5092921;28;20495;-33
2022/09/21 03:09:00;;;;;;;0.38;0.38;;;;;;;3.30;69.55;93549.00;5093026;28;20059;-33
2022/09/21 03:11:25;;;;;;;0.30;0.30;;;;;;;3.13;69.36;93551.78;5093268;28;20031;-33
2022/09/21 03:13:51;;;;;;;0.30;0.30;;;;;;;3.30;69.47;93555.22;5092845;28;20136;-33
2022/09/21 03:16:16;;;;;;;0.20;0.20;;;;;;;3.30;69.70;93554.47;5092841;28;20034;-33
2022/09/21 03:18:43;;;;;;;0.30;0.30;;;;;;;3.04;70.21;93525.50;5092853;28;20484;-33
2022/09/21 03:21:09;;;;;;;0.63;0.63;;;;;;;3.14;71.72;93550.50;5093161;28;20023;-33
2022/09/21 03:23:35;;;;;;;0.50;0.50;;;;;;;3.13;71.40;93521.00;5093011;28;20168;-33
2022/09/21 03:26:01;;;;;;;0.30;0.30;;;;;;;3.32;71.07;93543.78;5092145;28;20032;-33
2022/09/21 03:28:27;;;;;;;1.25;1.15;;;;;;;3.27;70.96;93541.84;5092911;28;20032;-33
2022/09/21 03:30:52;;;;;;;0.63;0.63;;;;;;;3.30;72.05;93546.28;5092796;28;20020;-33
2022/09/21 03:33:18;;;;;;;1.40;1.38;;;;;;;3.18;73.17;93542.09;5092526;28;20411;-33
2022/09/21 03:35:45;;;;;;;0.30;0.30;;;;;;;3.46;71.41;93554.44;5092708;28;20388;-33
2022/09/21 03:38:10;;;;;;;0.98;0.93;;;;;;;3.43;71.09;93546.50;5092264;28;20044;-33
2022/09/21 03:40:36;;;;;;;0.20;0.20;;;;;;;3.25;71.10;93525.22;5092704;28;20099;-33
2022/09/21 03:43:01;;;;;;;0.40;0.40;;;;;;;3.23;71.57;93539.34;5092494;28;20031;-33
2022/09/21 03:45:27;;;;;;;0.35;0.35;;;;;;;3.27;71.03;93548.00;5092343;28;20024;-33
2022/09/21 03:47:56;;;;;;;1.63;1.52;;;;;;;3.35;70.37;93553.72;5092146;28;20510;-33
2022/09/21 03:50:23;;;;;;;1.73;1.63;;;;;;;3.20;70.90;93547.78;5092110;28;20036;-33
2022/09/21 03:52:49;;;;;;;1.08;1.08;;;;;;;3.18;70.49;93551.03;5092352;28;20446;-33
2022/09/21 03:55:14;;;;;;;1.25;1.25;;;;;;;3.15;70.71;93548.53;5092340;28;20046;-33
2022/09/21 03:57:40;;;;;;;2.40;0.85;;;;;;;3.01;71.29;93553.75;5092169;28;20436;-33
2022/09/21 04:00:08;;;;;;;1.90;1.75;;;;;;;3.06;72.35;93546.81;5091969;28;20024;-33
2022/09/21 04:02:34;;;;;;;0.98;0.98;;;;;;;3.12;73.13;93557.72;5091821;28;20061;-33
2022/09/21 04:05:00;;;;;;;1.58;0.93;;;;;;;3.08;73.26;93545.09;5074153;28;20027;-33
2022/09/21 04:07:25;;;;;;;1.15;1.15;;;;;;;3.01;72.94;93545.56;5092058;28;20535;-33
2022/09/21 04:09:51;;;;;;;1.83;1.73;;;;;;;3.20;73.29;93547.78;5092138;28;20035;-33
2022/09/21 04:12:20;;;;;;;0.63;0.63;;;;;;;3.07;73.54;93549.03;5091904;28;20081;-33
2022/09/21 04:14:46;;;;;;;2.60;2.40;;;;;;;3.20;72.57;93556.72;5091657;28;20032;-33
2022/09/21 04:17:12;;;;;;;1.50;1.50;;;;;;;3.17;72.55;93548.78;5091966;28;20032;-33
2022/09/21 04:19:37;;;;;;;1.42;0.68;;;;;;;3.25;72.89;93555.22;5091680;28;20024;-33
2022/09/21 04:22:03;;;;;;;0.40;0.40;;;;;;;3.15;72.19;93534.91;5091525;28;20031;-33
2022/09/21 04:24:29;;;;;;;1.15;0.90;;;;;;;3.24;71.91;93556.47;5091831;28;20031;-33
2022/09/21 04:26:55;;;;;;;0.20;0.20;;;;;;;3.20;71.07;93559.47;5091352;28;20520;-33
2022/09/21 04:29:20;;;;;;;0.60;0.60;;;;;;;3.23;71.00;93550.25;5091702;28;20055;-33
2022/09/21 04:31:46;;;;;;;2.35;2.25;;;;;;;3.22;71.32;93553.50;5091380;28;20407;-33
2022/09/21 04:34:13;;;;;;;3.00;2.08;;;;;;;3.04;72.41;93560.97;5091372;28;20028;-33
2022/09/21 04:36:38;;;;;;;1.02;1.02;;;;;;;3.10;72.54;93560.94;5091430;28;20423;-33
2022/09/21 04:39:04;;;;;;;0.75;0.75;;;;;;;3.16;72.12;93560.94;5090774;28;20059;-33
2022/09/21 04:41:30;;;;;;;0.30;0.30;;;;;;;3.15;72.43;93564.91;5091572;28;20020;-33
2022/09/21 04:43:55;;;;;;;0.40;0.40;;;;;;;3.18;72.25;93567.41;5091136;28;20484;-33
2022/09/21 04:46:21;;;;;;;1.95;1.85;;;;;;;3.22;71.68;93575.31;5091103;28;20040;-33
2022/09/21 04:48:47;;;;;;;0.30;0.30;;;;;;;2.99;72.33;93558.22;5091342;28;20028;-33
2022/09/21 04:51:13;;;;;;;0.30;0.30;;;;;;;3.06;72.61;93571.38;5091360;28;20028;-33
2022/09/21 04:53:41;;;;;;;0.73;0.73;;;;;;;3.10;72.62;93579.31;5091001;28;20107;-33
2022/09/21 04:56:07;;;;;;;0.45;0.45;;;;;;;3.30;72.30;93582.50;5090843;28;20106;-33
2022/09/21 04:58:33;;;;;;;0.60;0.60;;;;;;;3.39;71.94;93579.50;5091253;28;20096;-33
2022/09/21 05:00:58;;;;;;;0.50;0.50;;;;;;;3.39;72.56;93578.75;5091151;28;20491;-33
2022/09/21 05:03:25;;;;;;;0.38;0.38;;;;;;;3.45;72.55;93571.31;5090775;28;20024;-33
2022/09/21 05:05:55;;;;;;;0.40;0.40;;;;;;;3.46;72.29;93575.53;5090810;28;20032;-33
2022/09/21 05:10:01;;;;;;;1.65;1.55;;;;;;;3.30;72.34;93552.47;5090749;28;20024;-33
2022/09/21 05:11:11;;;;;;;0.55;0.55;;;;;;;3.62;72.25;93583.66;5090655;28;20040;-33
2022/09/21 05:13:37;;;;;;;1.00;1.00;;;;;;;3.80;72.15;93588.59;5090873;28;20457;-33
2022/09/21 05:16:03;;;;;;;0.77;0.77;;;;;;;3.88;71.19;93583.34;5090529;28;20036;-33
2022/09/21 05:18:28;;;;;;;0.47;0.47;;;;;;;3.90;70.73;93578.13;5090599;28;20032;-33
2022/09/21 05:20:57;;;;;;;0.20;0.20;;;;;;;3.83;71.09;93584.84;5090545;28;20020;-33
2022/09/21 05:23:23;;;;;;;1.42;1.42;;;;;;;3.89;71.46;93589.56;5090581;28;20028;-33
2022/09/21 05:25:49;;;;;;;0.50;0.50;;;;;;;3.96;71.60;93581.59;5090452;28;20032;-33
2022/09/21 05:28:16;;;;;;;0.30;0.30;;;;;;;4.13;71.34;93584.25;5090459;28;20031;-33
2022/09/21 05:30:44;;;;;;;0.60;0.60;;;;;;;4.05;71.34;93577.81;5090700;28;20035;-33
2022/09/21 05:33:13;;;;;;;1.65;0.70;;;;;;;4.12;70.70;93583.50;5090760;28;20035;-33
2022/09/21 05:36:18;;;;;;;0.60;0.60;;;;;;;4.05;70.66;93562.16;5072548;28;20059;-33
2022/09/21 05:38:44;;;;;;;0.30;0.30;;;;;;;4.27;70.16;93589.38;5058789;28;20060;-33
2022/09/21 05:41:09;;;;;;;0.60;0.60;;;;;;;4.17;70.71;93587.44;5090568;28;20656;-33
2022/09/21 05:43:35;;;;;;;0.22;0.22;;;;;;;4.19;71.14;93587.69;5090268;28;20601;-33
2022/09/21 05:46:26;;;;;;;0.45;0.45;;;;;;;4.36;71.89;93589.09;5090670;28;20028;-33
2022/09/21 05:49:00;;;;;;;0.25;0.25;;;;;;;4.49;71.21;93585.78;5090710;28;20111;-33
2022/09/21 05:51:34;;;;;;;0.28;0.28;;;;;;;4.65;71.22;93586.94;5076557;28;20093;-33
2022/09/21 05:54:14;;;;;;;1.88;1.75;;;;;;;4.78;71.27;93574.19;5094389;28;20035;-33
2022/09/21 05:56:49;;;;;;;0.88;0.88;;;;;;;4.89;71.24;93576.09;5094448;28;20032;-33
2022/09/21 05:59:36;;;;;;;0.30;0.30;;;;;;;5.05;71.73;93581.41;5094406;28;20034;-33
2022/09/21 06:02:32;;;;;;;4.65;3.65;;;;;;;5.33;71.20;93575.69;5094309;28;20024;-33
2022/09/21 06:04:59;;;;;;;5.05;4.63;;;;;;;5.44;70.41;93567.38;5094302;28;20085;-33
2022/09/21 06:07:24;;;;;;;1.92;1.83;;;;;;;5.61;70.20;93567.25;5094140;28;20028;-33
2022/09/21 06:09:50;;;;;;;2.90;2.70;;;;;;;5.79;69.99;93569.28;5094238;28;20034;-33
2022/09/21 06:12:15;;;;;;;10.38;4.72;;;;;;;6.04;70.40;93570.78;5093940;28;20418;-33
2022/09/21 06:14:41;;;;;;;2.17;2.03;;;;;;;6.17;70.36;93567.38;5094078;28;20120;-33
2022/09/21 06:17:07;;;;;;;8.95;5.80;;;;;;;6.31;69.69;93564.19;5094199;28;20396;-33
2022/09/21 06:19:32;;;;;;;3.10;2.33;;;;;;;6.39;70.03;93567.81;5093985;28;20521;-33
2022/09/21 06:21:58;;;;;;;2.22;2.03;;;;;;;6.57;70.24;93564.34;5094240;28;20035;-33
2022/09/21 06:24:23;;;;;;;3.50;3.30;;;;;;;6.77;69.91;93568.56;5093902;28;20021;-33
2022/09/21 06:26:49;;;;;;;3.80;3.45;;;;;;;6.90;69.83;93576.84;5093444;28;20032;-33
2022/09/21 06:29:14;;;;;;;0.45;0.45;;;;;;;7.10;70.37;93567.31;5093896;28;20031;-33
2022/09/21 06:31:40;;;;;;;1.45;1.10;;;;;;;7.26;70.12;93574.53;5093703;28;20020;-33
2022/09/21 06:34:05;;;;;;;0.30;0.30;;;;;;;7.35;69.50;93574.88;5093618;28;20024;-33
2022/09/21 06:36:31;;;;;;;0.52;0.52;;;;;;;7.52;69.66;93577.34;5093722;28;20462;-33
2022/09/21 06:38:56;;;;;;;1.67;1.45;;;;;;;7.57;69.71;93573.75;5093350;28;20048;-33
2022/09/21 06:41:21;;;;;;;1.23;1.15;;;;;;;7.71;69.57;93580.72;5093449;28;20039;-33
2022/09/21 06:43:47;;;;;;;0.68;0.68;;;;;;;7.88;69.45;93580.44;5093790;28;20028;-33
2022/09/21 06:46:12;;;;;;;1.77;1.65;;;;;;;8.01;69.81;93583.19;5093417;28;20042;-33
2022/09/21 06:48:38;;;;;;;0.80;0.80;;;;;;;8.16;69.73;93575.16;5093328;28;20046;-33
2022/09/21 06:51:05;;;;;;;2.10;1.95;;;;;;;8.37;69.47;93579.50;5075172;28;20031;-33
2022/09/21 06:53:32;;;;;;;0.45;0.45;;;;;;;8.58;69.63;93587.06;5093540;28;20054;-33
2022/09/21 06:56:05;;;;;;;1.25;1.25;;;;;;;8.88;68.67;93584.69;5093137;28;20522;-33
2022/09/21 06:58:33;;;;;;;0.35;0.35;;;;;;;9.08;67.78;93586.72;5093388;28;20097;-33
2022/09/21 07:01:09;;;;;;;0.30;0.30;;;;;;;9.23;67.38;93584.09;5092599;28;20059;-33
2022/09/21 07:03:35;;;;;;;0.40;0.40;;;;;;;9.38;68.49;93573.22;5093253;28;20020;-33
2022/09/21 07:06:01;;;;;;;0.30;0.30;;;;;;;9.61;67.06;93571.41;5093309;28;20023;-33
2022/09/21 07:08:26;;;;;;;0.88;0.88;;;;;;;9.72;67.43;93573.16;5092994;28;20583;-33
2022/09/21 07:10:52;;;;;;;1.10;0.77;;;;;;;10.05;65.19;93590.84;5093010;28;20032;-33
2022/09/21 07:13:18;;;;;;;0.35;0.35;;;;;;;10.31;64.69;93582.41;5092850;28;20114;-33
2022/09/21 07:15:44;;;;;;;0.75;0.75;;;;;;;10.52;64.27;93581.03;5093135;28;20111;-33
2022/09/21 07:18:13;;;;;;;0.20;0.20;;;;;;;10.73;64.34;93582.94;5093058;28;20407;-33
2022/09/21 07:20:39;;;;;;;;;;;;;;;10.95;61.47;93585.78;5093315;28;20057;-33
2022/09/21 07:23:16;;;;;;;0.30;0.30;;;;;;;11.05;60.65;93575.69;5092927;28;19950;-33
2022/09/21 07:25:43;;;;;;;0.20;0.20;;;;;;;11.19;60.09;93577.03;5092359;28;20557;-33
2022/09/21 07:28:09;;;;;;;0.20;0.20;;;;;;;11.32;60.02;93573.34;5092892;28;20024;-34
2022/09/21 07:30:36;;;;;;;0.35;0.35;;;;;;;11.31;59.89;93580.16;5074799;28;20031;-33
2022/09/21 07:33:02;;;;;;;0.60;0.60;;;;;;;11.38;60.92;93568.38;5092399;28;20085;-33
2022/09/21 07:35:27;;;;;;;0.82;0.82;;;;;;;11.52;60.50;93577.97;5092592;28;20495;-33
2022/09/21 07:37:55;;;;;;;0.57;0.57;;;;;;;11.74;59.89;93577.28;5092569;28;20052;-34
2022/09/21 07:40:21;;;;;;;0.40;0.40;;;;;;;11.95;58.31;93580.56;5092853;28;20111;-33
2022/09/21 07:42:46;;;;;;;0.38;0.38;;;;;;;11.89;58.92;93574.50;5092460;28;20119;-33
2022/09/21 07:45:12;;;;;;;0.40;0.40;;;;;;;12.08;58.29;93580.38;5092375;28;20027;-34
2022/09/21 07:47:37;;;;;;;0.82;0.82;;;;;;;12.22;58.72;93569.84;5092329;28;20027;-33
2022/09/21 07:50:03;;;;;;;0.22;0.22;;;;;;;12.33;57.94;93568.72;5074215;28;20065;-33
2022/09/21 07:52:28;;;;;;;0.30;0.30;;;;;;;12.23;58.26;93574.09;5092249;28;20028;-33
2022/09/21 07:54:54;;;;;;;0.20;0.20;;;;;;;12.48;58.46;93577.72;5092344;28;20395;-33
2022/09/21 08:00:04;;;;;;;0.47;0.47;;;;;;;12.89;56.94;93570.94;5092338;28;20169;-33
2022/09/21 08:02:29;;;;;;;0.35;0.35;;;;;;;13.15;55.52;93573.22;5057279;28;20016;-33
2022/09/21 08:04:55;;;;;;;0.20;0.20;;;;;;;13.32;56.18;93576.09;5091934;28;20028;-33
2022/09/21 08:07:20;;;;;;;0.20;0.20;;;;;;;13.45;53.87;93573.06;5091856;28;20093;-33
2022/09/21 08:09:48;;;;;;;0.20;0.20;;;;;;;13.44;54.54;93570.84;5091848;28;20031;-34
2022/09/21 08:12:16;;;;;;;0.20;0.20;;;;;;;13.44;55.61;93576.41;5090651;28;20488;-33
2022/09/21 08:14:42;;;;;;;0.50;0.50;;;;;;;13.71;54.36;93571.75;5092026;28;20073;-33
2022/09/21 08:17:07;;;;;;;0.55;0.55;;;;;;;13.97;53.94;93565.63;5091954;28;20023;-33
2022/09/21 08:19:35;;;;;;;0.40;0.40;;;;;;;14.06;53.53;93561.47;5092023;28;20141;-33
2022/09/21 08:22:00;;;;;;;0.20;0.20;;;;;;;14.47;53.01;93554.47;5091917;28;20031;-34
2022/09/21 08:24:26;;;;;;;0.38;0.38;;;;;;;14.66;51.72;93563.69;5091791;28;20553;-34
2022/09/21 08:26:52;;;;;;;0.50;0.50;;;;;;;15.07;51.03;93562.09;5091226;28;20657;-33
2022/09/21 08:29:18;;;;;;;0.20;0.20;;;;;;;15.35;48.29;93555.22;5091330;28;20035;-33
2022/09/21 08:31:44;;;;;;;0.20;0.20;;;;;;;15.63;48.74;93558.19;5091716;28;20680;-33
2022/09/21 08:34:09;;;;;;;0.20;0.20;;;;;;;16.03;47.11;93554.94;5091566;28;20020;-33
2022/09/21 08:36:35;;;;;;;0.10;0.10;;;;;;;16.10;46.14;93553.34;5091611;28;20483;-33
2022/09/21 08:39:00;;;;;;;0.15;0.15;;;;;;;16.26;46.13;93544.19;5091228;28;20052;-33
2022/09/21 08:41:31;;;;;;;0.10;0.10;;;;;;;16.43;45.48;93541.25;5091112;28;20497;-34
2022/09/21 08:44:08;;;;;;;0.57;0.43;;;;;;;16.68;45.08;93530.59;5091181;28;20028;-33
2022/09/21 08:46:34;;;;;;;0.30;0.30;;;;;;;16.36;44.41;93539.34;5073101;28;20031;-33
2022/09/21 08:49:14;;;;;;;0.20;0.20;;;;;;;16.53;44.99;93536.44;5091225;28;20024;-34
2022/09/21 08:51:49;;;;;;;0.30;0.30;;;;;;;16.56;45.17;93529.72;5091454;28;20028;-34
2022/09/21 08:54:39;;;;;;;0.35;0.35;;;;;;;16.37;45.77;93540.78;5090872;28;20032;-33
2022/09/21 08:57:09;;;;;;;0.10;0.10;;;;;;;16.19;45.13;93538.72;5073212;28;20032;-33
2022/09/21 08:59:36;;;;;;;0.20;0.20;;;;;;;16.15;44.61;93533.59;5073362;28;20035;-33
2022/09/21 09:02:21;;;;;;;0.15;0.15;;;;;;;16.37;45.06;93540.78;5072910;28;20032;-33
2022/09/21 09:05:05;;;;;;;0.30;0.30;;;;;;;16.29;45.82;93536.69;5090726;28;20024;-34
2022/09/21 09:07:52;;;;;;;0.10;0.10;;;;;;;16.00;46.30;93538.69;5090757;28;20024;-34
2022/09/21 09:10:31;;;;;;;0.35;0.35;;;;;;;16.12;46.38;93539.59;5091099;28;20115;-33
2022/09/21 09:13:15;;;;;;;0.28;0.28;;;;;;;16.23;44.38;93533.44;5072764;28;20103;-33
2022/09/21 09:15:48;;;;;;;0.25;0.25;;;;;;;16.51;43.04;93535.56;5091006;28;20047;-33
2022/09/21 09:18:13;;;;;;;0.10;0.10;;;;;;;16.47;41.88;93527.63;5090659;28;20038;-33
2022/09/21 09:21:02;;;;;;;0.10;0.10;;;;;;;16.24;40.87;93535.63;5090606;28;20024;-33
2022/09/21 09:23:32;;;;;;;0.20;0.20;;;;;;;15.81;40.72;93531.72;5090398;28;20024;-34
2022/09/21 09:26:18;;;;;;;0.10;0.10;;;;;;;15.60;42.97;93525.19;5072473;28;20055;-33
2022/09/21 09:28:44;;;;;;;0.35;0.35;;;;;;;15.86;42.81;93521.63;5052530;28;20417;-33
2022/09/21 09:31:24;;;;;;;0.10;0.10;;;;;;;15.84;42.07;93527.78;5035761;28;20111;-33
2022/09/21 09:34:02;;;;;;;1.10;0.65;;;;;;;16.19;42.31;93519.22;5052708;28;20036;-33
2022/09/21 09:36:32;;;;;;;2.10;0.85;;;;;;;16.51;41.22;93500.06;5052662;28;20032;-33
2022/09/21 09:39:00;;;;;;;0.20;0.20;;;;;;;16.82;41.62;93521.78;5052387;28;20605;-33
2022/09/21 09:41:54;;;;;;;0.50;0.50;;;;;;;16.88;40.38;93522.22;5054894;28;20553;-33
2022/09/21 09:44:32;;;;;;;2.35;0.45;;;;;;;16.50;40.19;93514.59;5090646;28;20435;-34
2022/09/21 09:47:25;;;;;;;1.15;0.50;;;;;;;16.50;40.87;93509.75;5090445;28;20027;-34
2022/09/21 09:50:03;;;;;;;1.85;0.73;;;;;;;16.78;40.29;93502.72;5072594;28;20031;-33
2022/09/21 09:52:30;;;;;;;0.63;0.63;;;;;;;17.63;39.08;93506.63;5090509;28;20070;-34
2022/09/21 09:54:55;;;;;;;0.20;0.20;;;;;;;17.59;38.68;93502.81;5090250;28;20028;-34
2022/09/21 09:57:28;;;;;;;0.30;0.30;;;;;;;17.97;38.69;93486.66;5090292;28;20043;-33
2022/09/21 09:59:57;;;;;;;0.15;0.15;;;;;;;18.92;36.37;93498.47;5090267;28;20151;-34
2022/09/21 10:02:25;;;;;;;0.10;0.10;;;;;;;19.86;35.66;93491.75;5072221;28;20035;-34
2022/09/21 10:05:05;;;;;;;0.95;0.82;;;;;;;20.65;33.67;93497.13;5072135;28;20419;-34
2022/09/21 10:07:40;;;;;;;0.00;0.00;;;;;;;20.52;32.09;93494.97;5090471;28;20034;-34
2022/09/21 10:10:33;;;;;;;0.20;0.20;;;;;;;19.45;33.35;93494.13;5090083;28;20024;-34
2022/09/21 10:13:01;;;;;;;0.10;0.10;;;;;;;19.01;34.03;93494.88;5090025;28;20032;-33
2022/09/21 10:15:28;;;;;;;0.20;0.20;;;;;;;19.56;32.73;93494.16;5090302;28;20032;-34
2022/09/21 10:18:16;;;;;;;0.30;0.30;;;;;;;19.81;33.51;93479.56;5072419;28;20453;-34
2022/09/21 10:20:57;;;;;;;0.20;0.20;;;;;;;20.49;33.64;93474.50;5076643;28;20431;-34
2022/09/21 10:23:24;;;;;;;0.75;0.75;;;;;;;21.43;29.54;93475.59;5072165;28;20692;-34
2022/09/21 10:25:55;;;;;;;1.15;0.47;;;;;;;22.24;30.53;93470.06;5089589;28;20518;-33
2022/09/21 10:28:21;;;;;;;1.20;0.57;;;;;;;23.35;29.29;93467.88;5071926;28;20721;-34
2022/09/21 10:30:47;;;;;;;0.15;0.15;;;;;;;23.62;27.15;93467.03;5072267;28;20054;-34
2022/09/21 10:33:19;;;;;;;0.88;0.80;;;;;;;24.04;27.72;93463.31;5072213;28;20119;-34
2022/09/21 10:35:55;;;;;;;0.00;0.00;;;;;;;24.52;27.01;93458.31;5091424;28;20032;-34
2022/09/21 10:38:27;;;;;;;0.20;0.20;;;;;;;24.20;27.11;93451.28;5093641;28;20056;-34
2022/09/21 10:40:53;;;;;;;0.00;0.00;;;;;;;23.74;26.37;93458.38;5093729;28;20491;-34
2022/09/21 10:43:35;;;;;;;0.08;0.08;;;;;;;22.14;28.19;93460.41;5075522;28;20027;-34
2022/09/21 10:46:01;;;;;;;0.10;0.10;;;;;;;20.85;30.39;93464.63;5093614;28;20149;-34
2022/09/21 10:48:27;;;;;;;0.10;0.10;;;;;;;19.77;32.28;93468.13;5075396;28;20055;-34
2022/09/21 10:50:53;;;;;;;0.10;0.10;;;;;;;18.76;33.78;93475.06;5075393;28;20030;-33
2022/09/21 10:53:33;;;;;;;0.73;0.73;;;;;;;18.25;34.99;93468.22;5093509;28;20020;-33
2022/09/21 10:56:00;;;;;;;0.75;0.75;;;;;;;18.48;36.79;93473.22;5075075;28;20067;-33
2022/09/21 10:58:25;;;;;;;0.52;0.52;;;;;;;19.24;34.03;93464.13;5075293;28;20592;-33
2022/09/21 11:00:52;;;;;;;0.10;0.10;;;;;;;19.54;32.24;93460.44;5075195;28;20020;-33
2022/09/21 11:03:30;;;;;;;0.10;0.10;;;;;;;20.40;31.91;93452.94;5093128;28;20024;-33
2022/09/21 11:06:15;;;;;;;0.10;0.10;;;;;;;20.59;31.85;93451.91;5093211;28;20115;-34
2022/09/21 11:08:50;;;;;;;0.10;0.10;;;;;;;21.21;31.14;93449.81;5074968;28;20035;-34
2022/09/21 11:11:29;;;;;;;0.10;0.10;;;;;;;21.49;30.77;93447.81;5092951;28;20027;-34
2022/09/21 11:14:06;;;;;;;;;;;;;;;21.48;31.22;93446.38;5075727;28;20040;-34
2022/09/21 11:16:50;;;;;;;0.10;0.10;;;;;;;21.91;28.62;93441.66;5075219;28;19908;-34
2022/09/21 11:19:34;;;;;;;0.57;0.57;;;;;;;21.44;30.04;93454.59;5092802;28;20069;-34
2022/09/21 11:22:22;;;;;;;0.35;0.35;;;;;;;20.40;32.23;93444.53;5092852;28;20479;-34
2022/09/21 11:25:06;;;;;;;0.10;0.10;;;;;;;19.54;34.37;93449.22;5092712;28;20384;-34
2022/09/21 11:27:38;;;;;;;0.20;0.20;;;;;;;19.28;33.84;93446.84;5092728;28;20043;-33
2022/09/21 11:30:12;;;;;;;0.10;0.10;;;;;;;18.71;34.26;93454.47;5074556;28;20040;-33
2022/09/21 11:33:17;;;;;;;0.40;0.40;;;;;;;17.92;37.30;93459.03;5092516;28;20028;-34
2022/09/21 11:36:02;;;;;;;0.10;0.10;;;;;;;17.00;39.87;93453.38;5074691;28;20032;-33
2022/09/21 11:38:52;;;;;;;0.13;0.13;;;;;;;16.89;41.02;93443.53;5074516;28;20040;-33
2022/09/21 11:41:41;;;;;;;0.52;0.52;;;;;;;16.63;41.35;93447.97;5092491;28;20106;-33
2022/09/21 11:44:21;;;;;;;0.93;0.93;;;;;;;15.84;42.95;93449.09;5050688;28;20039;-33
2022/09/21 11:47:11;;;;;;;2.28;2.13;;;;;;;15.50;44.58;93452.84;5092333;28;20020;-33
2022/09/21 11:50:16;;;;;;;20.38;5.28;;;;;;;15.02;46.51;93460.94;5092549;28;20131;-33
2022/09/21 11:53:16;;;;;;;0.40;0.40;;;;;;;14.63;45.97;93452.94;5074425;28;20056;-33
2022/09/21 11:56:03;;;;;;;3.40;0.43;;;;;;;14.50;47.38;93465.16;5077208;28;20414;-33
2022/09/21 11:58:31;;;;;;;0.88;0.82;;;;;;;14.35;48.95;93470.88;5092099;28;20027;-33
2022/09/21 12:01:47;;;;;;;0.20;0.20;;;;;;;14.38;48.51;93476.03;5092342;28;20032;-33